Time;durP1;ratioP1;P1;durP2;ratioP2;P2;SDS_P1;SDS_P2;PMS_P1;PMS_P2;Temp;Humidity;BMP_temperature;BMP_pressure;BME280_temperature;BME280_humidity;BME280_pressure;Samples;Min_cycle;Max_cycle;Signal;HPM_P1;HPM_P2
2021/11/02 06:28:33;;;;;;;45.00;14.68;;;;;;;14.40;70.54;100698.97;5088367;27;102460;-47
2021/11/02 06:58:28;;;;;;;13.52;10.13;;;;;;;15.15;69.58;100697.22;5067321;27;102002;-49
2021/11/02 07:17:26;;;;;;;11.85;8.70;;;;;;;15.50;68.21;100701.16;5065755;27;103860;-48
2021/11/02 07:19:59;;;;;;;9.90;8.40;;;;;;;15.55;68.05;100706.56;5064389;27;102805;-50
2021/11/02 08:48:19;;;;;;;7.15;6.45;;;;;;;16.59;64.92;100651.84;5042829;27;104089;-48
2021/11/02 08:50:51;;;;;;;8.90;6.18;;;;;;;16.60;64.69;100650.72;5057214;27;102299;-48
2021/11/02 08:53:19;;;;;;;8.43;6.80;;;;;;;16.62;64.36;100644.88;5071518;27;102292;-47
2021/11/02 08:55:49;;;;;;;7.35;6.53;;;;;;;16.64;64.40;100639.91;5059240;27;102772;-50
2021/11/02 08:58:18;;;;;;;9.65;7.00;;;;;;;16.65;64.15;100636.03;5057867;27;102132;-49
2021/11/02 09:00:44;;;;;;;7.28;6.50;;;;;;;16.67;64.64;100631.84;5057587;27;102126;-46
2021/11/02 09:03:17;;;;;;;8.88;6.72;;;;;;;16.66;64.60;100630.22;5054304;27;102803;-47
2021/11/02 09:05:49;;;;;;;11.32;9.10;;;;;;;16.69;64.57;100634.25;5048250;27;104056;-46
2021/11/02 09:08:17;;;;;;;11.55;8.60;;;;;;;16.69;64.26;100618.59;5041613;27;102171;-47
2021/11/02 09:10:46;;;;;;;9.15;7.43;;;;;;;16.71;64.24;100623.78;5053753;27;103884;-47
2021/11/02 09:13:15;;;;;;;9.32;7.70;;;;;;;16.72;63.74;100626.19;5055558;27;102190;-47
2021/11/02 09:15:46;;;;;;;10.05;7.90;;;;;;;16.74;63.56;100615.75;5043187;27;103841;-46
2021/11/02 09:18:13;;;;;;;10.48;7.45;;;;;;;16.76;64.20;100612.69;5060753;27;102767;-48
2021/11/02 09:20:40;;;;;;;10.00;8.20;;;;;;;16.78;63.23;100610.44;5043795;27;102143;-48
2021/11/02 09:35:32;;;;;;;70.13;15.18;;;;;;;16.69;64.50;100590.31;5104351;27;102117;-96
2021/11/02 09:38:20;;;;;;;51.90;13.75;;;;;;;16.71;63.86;100585.31;5112216;27;101956;-96
2021/11/02 09:41:13;;;;;;;;;;;;;;;16.72;64.02;100584.97;5080064;27;102017;-95
2021/11/02 09:44:15;;;;;;;45.77;13.73;;;;;;;16.73;64.23;100586.63;5068486;27;103126;-93
2021/11/02 09:47:32;;;;;;;40.05;11.32;;;;;;;16.77;63.77;100587.66;5068626;27;102477;-96
2021/11/02 09:50:38;;;;;;;51.78;12.10;;;;;;;16.78;63.79;100577.47;5090290;27;102312;-96
2021/11/02 09:53:43;;;;;;;68.40;13.52;;;;;;;16.79;64.15;100579.88;5090849;27;102489;-96
2021/11/02 09:56:27;;;;;;;64.07;13.18;;;;;;;16.84;63.79;100581.69;5063789;27;102413;-93
2021/11/02 09:59:29;;;;;;;40.65;12.13;;;;;;;16.87;63.72;100575.53;5092446;27;102405;-96
2021/11/02 10:02:14;;;;;;;26.52;11.05;;;;;;;16.91;63.49;100571.03;5081254;27;101810;-95
2021/11/02 10:04:57;;;;;;;26.10;10.25;;;;;;;16.92;63.88;100578.16;5083684;27;102211;-94
2021/11/02 10:07:52;;;;;;;22.73;10.75;;;;;;;16.94;63.36;100575.09;5082651;27;101267;-96
2021/11/02 10:10:23;;;;;;;19.65;10.07;;;;;;;16.97;63.29;100574.47;5090219;27;102073;-93
2021/11/02 10:13:01;;;;;;;14.32;9.32;;;;;;;16.97;63.26;100567.00;5086788;27;102592;-94
2021/11/02 10:15:42;;;;;;;16.90;9.65;;;;;;;16.99;63.37;100561.22;5078060;27;102348;-94
2021/11/02 10:18:40;;;;;;;13.70;9.07;;;;;;;17.02;63.02;100561.41;5086188;27;102655;-94
2021/11/02 10:21:56;;;;;;;14.13;9.00;;;;;;;17.05;63.38;100554.44;5072464;27;102469;-95
2021/11/02 10:24:51;;;;;;;14.77;9.60;;;;;;;17.07;62.79;100540.38;5066408;27;102736;-92
2021/11/02 10:27:30;;;;;;;;;;;;;;;17.11;62.77;100535.84;5076122;27;102737;-91
2021/11/02 10:30:22;;;;;;;17.60;11.90;;;;;;;17.13;62.57;100528.06;5060037;27;102269;-93
2021/11/02 10:32:56;;;;;;;27.98;10.52;;;;;;;17.11;62.40;100522.91;5068289;27;102167;-95
2021/11/02 10:35:34;;;;;;;20.25;10.93;;;;;;;17.13;62.56;100528.06;5060645;27;101933;-94
2021/11/02 10:38:08;;;;;;;16.98;10.70;;;;;;;17.14;62.79;100529.72;5044077;27;103737;-96
2021/11/02 10:40:43;;;;;;;17.00;10.95;;;;;;;17.17;62.58;100526.34;5080065;27;101921;-94
2021/11/02 10:43:51;;;;;;;19.58;14.18;;;;;;;17.22;62.39;100517.94;5058337;27;102933;-95
2021/11/02 10:46:24;;;;;;;24.40;16.10;;;;;;;17.27;62.62;100509.50;5050664;27;103392;-91
2021/11/02 10:48:51;;;;;;;21.20;15.90;;;;;;;17.34;62.69;100506.28;5044134;27;103995;-94
2021/11/02 10:51:35;;;;;;;18.80;14.45;;;;;;;17.38;62.50;100507.25;5051449;27;102138;-92
2021/11/02 10:54:19;;;;;;;16.67;13.65;;;;;;;17.40;62.48;100505.81;5056175;27;102947;-92
2021/11/02 10:57:06;;;;;;;14.57;12.60;;;;;;;17.44;62.42;100512.28;5046693;27;102035;-92
2021/11/02 10:59:41;;;;;;;14.75;12.65;;;;;;;17.44;62.63;100509.53;5032228;27;102986;-91
2021/11/02 11:02:21;;;;;;;16.95;12.40;;;;;;;17.47;62.49;100500.63;5049221;27;102134;-92
2021/11/02 11:04:51;;;;;;;13.80;12.25;;;;;;;17.50;62.43;100501.94;5041498;27;102290;-95
2021/11/02 11:07:18;;;;;;;12.82;11.32;;;;;;;17.49;62.02;100492.88;5041801;27;102388;-92
2021/11/02 11:09:51;;;;;;;11.93;10.63;;;;;;;17.50;62.01;100493.69;5055182;27;103419;-96
2021/11/02 11:12:20;;;;;;;13.05;11.15;;;;;;;17.51;62.54;100489.78;5064034;27;102860;-93
2021/11/02 11:14:52;;;;;;;12.57;11.27;;;;;;;17.53;61.94;100487.53;5044520;27;102397;-94
2021/11/02 11:17:27;;;;;;;14.05;11.55;;;;;;;17.53;62.08;100485.59;5046071;27;102079;-93
2021/11/02 11:22:31;;;;;;;19.65;11.68;;;;;;;17.59;62.73;100479.91;5116814;27;102486;-96
2021/11/02 11:25:14;;;;;;;18.92;12.75;;;;;;;17.54;62.58;100480.91;5128952;27;101085;-96
2021/11/02 11:27:47;;;;;;;17.00;11.95;;;;;;;17.48;62.59;100483.00;5109708;27;101989;-96
2021/11/02 11:30:15;;;;;;;17.00;12.52;;;;;;;17.44;62.93;100490.28;5100466;27;101180;-96
2021/11/02 11:32:42;;;;;;;15.07;12.60;;;;;;;17.41;63.22;100487.34;5116709;27;101362;-96
2021/11/02 11:35:09;;;;;;;16.98;12.32;;;;;;;17.34;62.65;100482.34;5118864;27;101952;-96
2021/11/02 11:37:39;;;;;;;16.23;13.13;;;;;;;17.28;62.35;100494.66;5113227;27;101576;-96
2021/11/02 11:40:08;;;;;;;14.38;12.88;;;;;;;17.22;62.37;100502.22;5118635;27;101137;-96
2021/11/02 11:42:35;;;;;;;17.58;13.75;;;;;;;17.17;62.48;100494.16;5125811;27;101216;-96
2021/11/02 11:45:06;;;;;;;14.68;12.85;;;;;;;17.12;62.25;100488.78;5132211;27;101148;-96
2021/11/02 11:47:35;;;;;;;14.52;11.80;;;;;;;17.08;62.71;100492.50;5120795;27;101661;-96
2021/11/02 11:50:20;;;;;;;15.82;13.10;;;;;;;17.02;61.92;100500.91;5106095;27;101417;-96
2021/11/02 11:52:51;;;;;;;13.57;12.15;;;;;;;16.97;62.44;100481.78;5113180;27;101197;-96
2021/11/02 11:55:25;;;;;;;15.45;13.23;;;;;;;16.93;62.27;100497.31;5102294;27;102731;-89
2021/11/02 11:58:10;;;;;;;15.43;13.05;;;;;;;16.90;62.88;100486.16;5103356;27;103953;-91
2021/11/02 12:00:38;;;;;;;15.68;13.27;;;;;;;16.85;62.75;100489.88;5097361;27;102348;-90
2021/11/02 12:03:16;;;;;;;15.93;13.85;;;;;;;16.82;63.03;100479.50;5084524;27;102751;-90
2021/11/02 12:05:44;;;;;;;13.80;12.40;;;;;;;16.79;63.22;100480.13;5098615;27;102311;-94
2021/11/02 12:08:20;;;;;;;13.90;12.50;;;;;;;16.76;63.28;100467.03;5104185;27;102666;-91
2021/11/02 12:10:51;;;;;;;13.45;12.00;;;;;;;16.74;63.08;100477.53;5080824;27;102322;-91
2021/11/02 12:13:19;;;;;;;14.50;12.43;;;;;;;16.71;63.25;100478.94;5087692;27;102181;-91
2021/11/02 12:16:00;;;;;;;14.93;13.35;;;;;;;16.67;63.46;100463.44;5112365;27;102203;-91
2021/11/02 12:18:28;;;;;;;15.77;13.90;;;;;;;16.63;63.41;100473.44;5080341;27;102487;-93
2021/11/02 12:20:55;;;;;;;16.20;13.88;;;;;;;16.61;63.25;100467.44;5091478;27;102222;-93
2021/11/02 12:23:36;;;;;;;16.45;14.55;;;;;;;16.57;63.48;100468.06;5106043;27;102408;-91
2021/11/02 12:26:03;;;;;;;16.15;14.23;;;;;;;16.54;63.68;100463.22;5100203;27;102563;-94
2021/11/02 12:28:33;;;;;;;15.88;14.18;;;;;;;16.52;63.21;100468.22;5087898;27;102801;-93
2021/11/02 12:31:01;;;;;;;14.85;13.25;;;;;;;16.49;63.66;100471.59;5086482;27;102802;-96
2021/11/02 12:33:29;;;;;;;19.40;14.82;;;;;;;16.46;63.62;100465.94;5053594;27;102348;-93
2021/11/02 12:35:57;;;;;;;15.90;14.00;;;;;;;16.43;63.65;100464.63;5070417;27;102228;-95
2021/11/02 12:38:34;;;;;;;16.05;13.73;;;;;;;16.40;63.43;100465.25;5071701;27;102722;-91
2021/11/02 12:41:01;;;;;;;16.55;14.35;;;;;;;16.38;63.65;100470.25;5071434;27;102203;-92
2021/11/02 12:43:30;;;;;;;15.95;14.32;;;;;;;16.35;63.70;100462.66;5077608;27;102229;-91
2021/11/02 12:46:00;;;;;;;17.15;14.27;;;;;;;16.32;63.90;100463.28;5094402;27;102483;-91
2021/11/02 12:48:28;;;;;;;20.92;15.45;;;;;;;16.29;63.27;100466.66;5097670;27;104082;-91
2021/11/02 12:50:56;;;;;;;21.60;15.27;;;;;;;16.27;63.74;100480.72;5099409;27;102536;-92
2021/11/02 12:53:23;;;;;;;16.27;14.55;;;;;;;16.25;63.59;100476.66;5076669;27;102919;-91
2021/11/02 12:55:54;;;;;;;18.92;14.52;;;;;;;16.22;63.09;100485.50;5089256;27;102440;-93
2021/11/02 12:58:23;;;;;;;20.52;14.98;;;;;;;16.18;63.86;100471.59;5091023;27;102891;-93
2021/11/02 13:00:52;;;;;;;18.00;15.27;;;;;;;16.17;63.37;100480.16;5087587;27;102388;-92
2021/11/02 13:03:24;;;;;;;19.05;14.60;;;;;;;16.13;63.38;100473.69;5096926;27;102492;-94
2021/11/02 13:05:55;;;;;;;16.25;14.07;;;;;;;16.12;63.93;100472.88;5080602;27;102298;-95
2021/11/02 13:08:41;;;;;;;17.77;14.55;;;;;;;16.09;63.51;100479.00;5099273;27;102246;-96
2021/11/02 13:11:18;;;;;;;17.45;14.20;;;;;;;16.05;63.80;100476.06;5085109;27;102277;-94
2021/11/02 13:14:01;;;;;;;18.15;14.57;;;;;;;16.02;63.43;100473.94;5096713;27;102386;-95
2021/11/02 13:16:29;;;;;;;16.27;13.70;;;;;;;16.00;63.75;100470.69;5086284;27;102201;-94
2021/11/02 13:18:56;;;;;;;16.98;14.07;;;;;;;15.99;63.50;100462.78;5086849;27;103949;-95
2021/11/02 13:21:26;;;;;;;17.95;15.32;;;;;;;15.96;63.68;100469.69;5094216;27;101997;-92
2021/11/02 13:23:59;;;;;;;18.13;15.77;;;;;;;15.93;63.66;100461.28;5081845;27;102119;-96
2021/11/02 13:26:28;;;;;;;16.55;13.27;;;;;;;15.91;63.96;100461.63;5087008;27;102220;-92
2021/11/02 13:29:11;;;;;;;17.02;14.23;;;;;;;15.88;63.65;100464.97;5096094;27;102677;-93
2021/11/02 13:31:38;;;;;;;15.38;13.52;;;;;;;15.86;63.70;100464.47;5092991;27;102440;-92
2021/11/02 13:34:06;;;;;;;20.10;15.60;;;;;;;15.85;63.61;100471.09;5088026;27;102552;-93
2021/11/02 13:36:33;;;;;;;19.88;15.52;;;;;;;15.83;64.03;100470.56;5092772;27;102599;-92
2021/11/02 13:39:01;;;;;;;19.15;15.85;;;;;;;15.80;63.76;100479.47;5091072;27;102416;-92
2021/11/02 13:41:31;;;;;;;21.98;17.45;;;;;;;15.80;63.85;100479.47;5096890;27;102112;-92
2021/11/02 13:44:04;;;;;;;22.42;19.08;;;;;;;15.78;63.79;100479.75;5084735;27;102205;-92
2021/11/02 13:46:33;;;;;;;24.60;20.20;;;;;;;15.78;64.28;100478.94;5090885;27;102005;-93
2021/11/02 13:48:59;;;;;;;23.55;20.08;;;;;;;15.76;64.13;100470.19;5089109;27;105465;-91
2021/11/02 13:51:26;;;;;;;23.80;18.95;;;;;;;15.74;63.97;100470.53;5094715;27;103439;-91
2021/11/02 13:53:53;;;;;;;22.65;18.83;;;;;;;15.74;64.60;100475.22;5099696;27;102874;-96
2021/11/02 13:56:22;;;;;;;22.58;17.08;;;;;;;15.73;64.07;100476.34;5080867;27;102497;-95
2021/11/02 13:58:50;;;;;;;18.77;16.63;;;;;;;15.70;63.90;100471.47;5094419;27;102999;-96
2021/11/02 14:01:27;;;;;;;19.73;17.00;;;;;;;15.69;63.90;100480.84;5071420;27;102710;-95
2021/11/02 14:03:59;;;;;;;20.65;15.70;;;;;;;15.69;63.96;100475.34;5093873;27;102491;-95
2021/11/02 14:06:27;;;;;;;20.10;16.17;;;;;;;15.68;63.93;100479.19;5098670;27;102210;-94
2021/11/02 14:08:55;;;;;;;20.10;15.60;;;;;;;15.66;64.04;100475.97;5094896;27;102180;-95
2021/11/02 14:11:25;;;;;;;18.80;15.00;;;;;;;15.65;63.98;100482.53;5097213;27;102204;-96
2021/11/02 14:13:54;;;;;;;19.70;15.68;;;;;;;15.63;64.01;100478.16;5092321;27;101703;-95
2021/11/02 14:16:31;;;;;;;17.17;14.90;;;;;;;15.61;63.90;100483.16;5078030;27;102345;-96
2021/11/02 14:18:59;;;;;;;18.75;14.93;;;;;;;15.61;64.05;100485.91;5085870;27;102400;-90
2021/11/02 14:21:50;;;;;;;16.95;14.65;;;;;;;15.58;64.38;100481.03;5080176;27;103510;-90
2021/11/02 14:24:29;;;;;;;17.23;15.05;;;;;;;15.58;64.46;100481.03;5074659;27;102903;-90
2021/11/02 14:26:56;;;;;;;17.38;14.07;;;;;;;15.57;64.34;100478.59;5077499;27;102159;-89
2021/11/02 14:29:58;;;;;;;18.10;15.27;;;;;;;15.56;64.35;100476.97;5097299;27;102699;-90
2021/11/02 14:32:49;;;;;;;18.70;15.13;;;;;;;15.54;64.02;100474.56;5086735;27;102263;-89
2021/11/02 14:35:38;;;;;;;17.75;14.65;;;;;;;15.54;64.36;100479.22;5076015;27;102270;-89
2021/11/02 14:38:05;;;;;;;19.20;14.10;;;;;;;15.52;64.12;100476.78;5092333;27;103020;-88
2021/11/02 14:40:33;;;;;;;18.40;14.32;;;;;;;15.52;64.15;100482.28;5082595;27;103434;-87
2021/11/02 14:43:19;;;;;;;18.92;15.40;;;;;;;15.50;64.32;100473.53;5085025;27;102638;-86
2021/11/02 14:45:50;;;;;;;19.25;15.43;;;;;;;15.51;64.11;100475.16;5087941;27;102760;-89
2021/11/02 14:48:56;;;;;;;18.83;16.00;;;;;;;15.51;64.04;100468.88;5091220;27;102203;-89
2021/11/02 14:51:28;;;;;;;16.98;15.15;;;;;;;15.49;64.02;100463.69;5067245;27;102771;-91
2021/11/02 14:53:57;;;;;;;20.50;15.95;;;;;;;15.48;64.20;100464.81;5087600;27;101986;-94
2021/11/02 14:56:31;;;;;;;;;;;;;;;15.48;64.39;100461.28;5086455;27;102542;-96
2021/11/02 14:58:58;;;;;;;24.55;18.85;;;;;;;15.48;64.33;100453.03;5095817;27;103154;-95
2021/11/02 15:01:27;;;;;;;26.83;19.60;;;;;;;15.47;64.58;100454.16;5096458;27;103096;-93
2021/11/02 15:03:55;;;;;;;25.00;19.42;;;;;;;15.45;64.47;100454.47;5086917;27;101918;-96
2021/11/02 15:06:30;;;;;;;26.40;20.75;;;;;;;15.46;64.37;100452.53;5076599;27;102235;-95
2021/11/02 15:08:57;;;;;;;25.00;20.17;;;;;;;15.44;64.33;100452.03;5090566;27;102135;-96
2021/11/02 15:11:24;;;;;;;26.13;20.05;;;;;;;15.44;64.50;100447.38;5092526;27;101568;-96
2021/11/02 15:13:54;;;;;;;25.58;20.95;;;;;;;15.42;64.36;100444.13;5073623;27;102000;-96
2021/11/02 15:16:22;;;;;;;26.77;21.35;;;;;;;15.42;64.66;100444.13;5093762;27;101800;-96
2021/11/02 15:18:51;;;;;;;25.80;20.58;;;;;;;15.42;64.69;100438.63;5109854;27;101314;-96
2021/11/02 15:21:30;;;;;;;25.15;21.15;;;;;;;15.40;64.79;100440.88;5109180;27;101618;-96
2021/11/02 15:23:59;;;;;;;37.75;21.95;;;;;;;15.39;64.64;100439.25;5067016;22;107383;-51
2021/11/02 15:26:25;;;;;;;36.90;20.60;;;;;;;15.38;65.00;100443.13;5051980;27;102081;-48
2021/11/02 15:28:52;;;;;;;35.35;21.10;;;;;;;15.36;64.79;100442.59;5047870;27;102208;-47
2021/11/02 15:31:20;;;;;;;33.60;20.40;;;;;;;15.34;64.56;100447.59;5038836;27;103942;-46
2021/11/02 15:33:46;;;;;;;36.77;19.57;;;;;;;15.33;64.99;100448.72;5048504;27;102575;-49
2021/11/02 15:36:18;;;;;;;32.25;19.02;;;;;;;15.32;64.71;100444.34;5053526;27;103039;-48
2021/11/02 15:38:58;;;;;;;34.65;19.88;;;;;;;15.30;64.65;100441.94;5047724;27;102612;-47
2021/11/02 15:41:26;;;;;;;26.52;19.20;;;;;;;15.30;64.84;100441.13;5048552;27;103919;-48
2021/11/02 15:43:55;;;;;;;33.20;18.87;;;;;;;15.29;65.22;100444.97;5049799;27;102012;-48
2021/11/02 15:46:24;;;;;;;26.60;19.30;;;;;;;15.27;65.19;100442.53;5050659;27;102217;-48
2021/11/02 15:48:53;;;;;;;24.45;19.05;;;;;;;15.28;64.77;100448.84;5043885;27;102983;-50
2021/11/02 15:51:20;;;;;;;22.35;18.67;;;;;;;15.25;65.23;100443.97;5049770;27;104034;-49
2021/11/02 15:53:47;;;;;;;27.02;19.52;;;;;;;15.24;65.16;100450.56;5051170;27;102016;-48
2021/11/02 15:56:22;;;;;;;24.67;19.95;;;;;;;15.23;65.33;100440.72;5049833;27;102172;-51
2021/11/02 15:58:55;;;;;;;24.98;19.80;;;;;;;15.22;65.20;100444.56;5048636;27;102380;-48
2021/11/02 16:01:28;;;;;;;27.70;19.60;;;;;;;15.21;64.84;100445.69;5050646;27;103974;-49
2021/11/02 16:04:06;;;;;;;26.02;20.58;;;;;;;15.20;65.01;100446.84;5047576;27;104386;-47
2021/11/02 16:06:32;;;;;;;29.05;19.65;;;;;;;15.18;65.08;100443.56;5047455;27;102028;-48
2021/11/02 16:09:01;;;;;;;25.63;18.95;;;;;;;15.17;64.94;100441.97;5054279;27;103092;-49
2021/11/02 16:11:29;;;;;;;28.60;20.80;;;;;;;15.17;65.15;100439.22;5054246;27;103955;-48
2021/11/02 16:14:05;;;;;;;24.25;19.33;;;;;;;15.14;65.46;100435.97;5043320;27;102154;-47
2021/11/02 16:16:33;;;;;;;24.80;19.83;;;;;;;15.14;65.62;100448.88;5052182;27;102406;-49
2021/11/02 16:19:00;;;;;;;25.63;20.58;;;;;;;15.13;65.18;100441.78;5049507;27;102660;-47
2021/11/02 16:21:32;;;;;;;25.50;19.52;;;;;;;15.11;65.58;100444.84;5045722;27;103895;-47
2021/11/02 16:24:08;;;;;;;23.23;18.95;;;;;;;15.09;65.30;100441.56;5050437;27;102702;-47
2021/11/02 16:26:39;;;;;;;23.73;17.98;;;;;;;15.10;65.23;100442.38;5050526;27;103283;-49
2021/11/02 16:29:12;;;;;;;22.65;18.40;;;;;;;15.09;65.14;100441.56;5056516;27;102266;-48
2021/11/02 16:31:46;;;;;;;23.00;17.65;;;;;;;15.08;64.94;100434.47;5048876;27;103919;-50
2021/11/02 16:34:19;;;;;;;24.27;18.30;;;;;;;15.08;65.07;100429.00;5045226;27;102442;-48
2021/11/02 16:36:47;;;;;;;23.98;17.33;;;;;;;15.07;65.19;100432.88;5050104;27;103809;-49
2021/11/02 16:39:20;;;;;;;22.00;16.80;;;;;;;15.07;65.22;100429.28;5046243;27;103388;-48
2021/11/02 16:41:50;;;;;;;23.45;17.80;;;;;;;15.06;65.06;100433.97;5052176;27;103963;-50
2021/11/02 16:44:26;;;;;;;20.40;15.68;;;;;;;15.08;65.26;100428.19;5057783;27;102207;-50
2021/11/02 16:47:03;;;;;;;19.40;16.55;;;;;;;15.07;65.08;100426.56;5054894;27;102424;-48
2021/11/02 16:49:33;;;;;;;21.03;16.43;;;;;;;15.07;65.23;100429.28;5041372;27;104164;-52
2021/11/02 16:52:04;;;;;;;18.75;15.40;;;;;;;15.07;65.33;100427.38;5055377;27;104160;-48
2021/11/02 16:54:33;;;;;;;19.73;16.98;;;;;;;15.06;65.29;100417.53;5049901;27;106052;-49
2021/11/02 16:57:06;;;;;;;18.95;16.10;;;;;;;15.06;65.32;100417.53;5049196;27;102171;-48
2021/11/02 16:59:49;;;;;;;20.33;17.55;;;;;;;15.07;65.27;100416.41;5056888;27;102572;-47
2021/11/02 17:02:17;;;;;;;19.63;16.73;;;;;;;15.06;65.33;100412.03;5050232;27;103998;-48
2021/11/02 17:04:59;;;;;;;18.98;15.90;;;;;;;15.06;65.12;100414.78;5057738;27;102348;-48
2021/11/02 17:07:36;;;;;;;19.70;16.65;;;;;;;15.07;65.38;100413.69;5052148;27;102180;-48
2021/11/02 17:10:38;;;;;;;18.58;15.82;;;;;;;15.07;65.21;100410.09;5051095;27;102703;-47
2021/11/02 17:13:14;;;;;;;16.50;14.73;;;;;;;15.06;65.24;100423.00;4943060;28;104099;-48
2021/11/02 17:15:47;;;;;;;19.83;16.85;;;;;;;15.06;65.41;100425.75;4951870;28;102388;-50
2021/11/02 17:18:16;;;;;;;19.25;14.88;;;;;;;15.06;65.25;100425.75;5015753;27;102415;-48
2021/11/02 17:20:44;;;;;;;16.58;14.68;;;;;;;15.06;65.32;100425.75;5057942;27;102240;-50
2021/11/02 17:23:12;;;;;;;15.83;13.87;;;;;;;15.06;65.45;100424.94;5050901;27;103677;-50
2021/11/02 17:25:40;;;;;;;17.92;15.55;;;;;;;15.07;65.49;100427.38;5051928;27;102417;-51
2021/11/02 17:28:08;;;;;;;16.10;14.18;;;;;;;15.06;65.32;100424.94;5054163;27;102024;-51
2021/11/02 17:30:35;;;;;;;16.92;14.20;;;;;;;15.06;65.31;100417.53;5057816;27;102243;-51
2021/11/02 17:33:02;;;;;;;17.95;14.05;;;;;;;15.07;65.25;100424.66;5041340;27;106524;-49
2021/11/02 17:35:29;;;;;;;16.63;14.75;;;;;;;15.07;65.55;100416.41;5043579;27;102399;-47
2021/11/02 17:37:56;;;;;;;16.08;13.57;;;;;;;15.06;65.47;100412.03;5048566;27;103157;-47
2021/11/02 17:40:24;;;;;;;18.77;13.40;;;;;;;15.05;65.45;100407.69;5045232;27;102249;-48
2021/11/02 17:42:52;;;;;;;15.07;13.27;;;;;;;15.07;65.80;100412.84;5042828;27;105229;-48
2021/11/02 17:45:21;;;;;;;18.70;14.00;;;;;;;15.06;65.52;100403.81;5050468;27;102236;-52
2021/11/02 17:47:49;;;;;;;15.23;13.38;;;;;;;15.07;65.75;100410.94;5041204;27;102158;-49
2021/11/02 17:50:17;;;;;;;15.27;12.55;;;;;;;15.07;65.74;100407.38;5055251;27;102913;-51
2021/11/02 17:52:44;;;;;;;21.73;12.93;;;;;;;15.08;65.77;100412.56;5049693;27;102761;-48
2021/11/02 17:55:13;;;;;;;14.50;12.20;;;;;;;15.08;65.48;100409.00;5051680;27;102427;-51
2021/11/02 17:57:41;;;;;;;15.10;12.32;;;;;;;15.07;65.89;100410.94;5052668;27;102254;-50
2021/11/02 18:00:11;;;;;;;15.35;12.55;;;;;;;15.07;65.56;100405.47;5056219;27;102626;-51
2021/11/02 18:02:40;;;;;;;14.07;11.85;;;;;;;15.08;65.75;100404.34;5056180;27;103834;-48
2021/11/02 18:05:07;;;;;;;19.85;12.05;;;;;;;15.08;65.93;100412.56;5063202;27;103471;-49
2021/11/02 18:07:35;;;;;;;18.33;11.83;;;;;;;15.08;65.81;100407.06;5054124;27;102499;-47
2021/11/02 18:10:03;;;;;;;15.80;12.43;;;;;;;15.08;65.97;100407.06;5051815;27;102181;-48
2021/11/02 18:12:30;;;;;;;12.73;11.50;;;;;;;15.09;65.79;100402.41;5050200;27;104103;-48
2021/11/02 18:14:57;;;;;;;14.88;12.15;;;;;;;15.09;65.74;100407.88;5043242;27;102364;-50
2021/11/02 18:17:28;;;;;;;14.70;11.10;;;;;;;15.09;66.03;100403.19;5049733;27;104636;-48
2021/11/02 18:19:59;;;;;;;13.38;11.55;;;;;;;15.09;65.89;100403.19;5044130;27;103437;-49
2021/11/02 18:22:27;;;;;;;13.88;11.02;;;;;;;15.10;66.00;100412.22;5046015;27;104525;-48
2021/11/02 18:24:53;;;;;;;11.73;10.38;;;;;;;15.09;65.92;100405.94;5055051;27;102461;-50
2021/11/02 18:27:23;;;;;;;14.88;11.52;;;;;;;15.10;66.10;100409.50;5051785;27;102568;-48
2021/11/02 18:29:51;;;;;;;12.82;10.52;;;;;;;15.10;65.93;100409.50;5051952;27;102400;-48
2021/11/02 18:32:18;;;;;;;12.77;10.55;;;;;;;15.10;66.16;100409.50;5047013;27;103857;-48
2021/11/02 18:34:46;;;;;;;13.43;11.18;;;;;;;15.10;66.29;100413.03;5055013;27;102654;-48
2021/11/02 18:37:16;;;;;;;13.02;10.88;;;;;;;15.11;66.37;100405.63;5054038;27;102020;-51
2021/11/02 18:39:44;;;;;;;11.75;10.63;;;;;;;15.10;66.31;100413.03;5054850;27;102161;-51
2021/11/02 18:42:12;;;;;;;12.60;10.23;;;;;;;15.11;66.13;100402.88;5050461;27;103945;-47
2021/11/02 18:44:39;;;;;;;14.38;11.15;;;;;;;15.11;66.35;100403.72;5042985;27;102953;-49
2021/11/02 18:47:06;;;;;;;12.80;10.50;;;;;;;15.11;66.24;100406.47;5051769;27;103607;-47
2021/11/02 18:49:33;;;;;;;11.80;10.60;;;;;;;15.12;66.51;100407.25;5048173;27;107655;-48
2021/11/02 18:52:00;;;;;;;13.20;10.85;;;;;;;15.12;66.42;100404.53;5043772;27;103900;-50
2021/11/02 18:54:28;;;;;;;12.32;10.40;;;;;;;15.12;66.58;100402.59;5047309;27;102102;-48
2021/11/02 18:56:57;;;;;;;11.18;9.98;;;;;;;15.13;66.33;100404.19;5054469;27;102459;-48
2021/11/02 18:59:23;;;;;;;12.23;10.00;;;;;;;15.13;66.56;100404.19;5035361;27;102519;-50
2021/11/02 19:01:50;;;;;;;13.38;10.00;;;;;;;15.14;66.38;100405.81;5049717;27;104079;-48
2021/11/02 19:04:17;;;;;;;11.48;9.95;;;;;;;15.14;66.65;100407.75;5053954;27;102233;-50
2021/11/02 19:06:44;;;;;;;13.68;10.68;;;;;;;15.13;66.40;100397.91;5062733;27;102054;-52
2021/11/02 19:09:10;;;;;;;13.05;10.73;;;;;;;15.13;66.40;100401.47;5055543;27;102094;-50
2021/11/02 19:11:39;;;;;;;14.02;9.88;;;;;;;15.13;66.67;100397.91;5055988;27;104052;-49
2021/11/02 19:14:10;;;;;;;12.63;10.10;;;;;;;15.13;66.43;100404.19;5056585;27;102831;-52
2021/11/02 19:16:37;;;;;;;12.25;10.32;;;;;;;15.14;66.26;100405.81;5052249;27;102585;-51
2021/11/02 19:19:03;;;;;;;13.93;10.98;;;;;;;15.14;66.63;100397.59;5056954;27;102205;-52
2021/11/02 19:21:30;;;;;;;13.00;9.93;;;;;;;15.14;66.78;100399.53;5053819;27;103939;-49
2021/11/02 19:23:57;;;;;;;11.40;9.90;;;;;;;15.14;66.89;100405.00;5060353;27;102450;-52
2021/11/02 19:26:23;;;;;;;12.65;10.07;;;;;;;15.13;66.62;100406.13;5061094;27;102969;-49
2021/11/02 19:28:51;;;;;;;12.35;9.23;;;;;;;15.14;66.72;100405.00;5054903;27;102834;-48
2021/11/02 19:31:22;;;;;;;11.95;9.30;;;;;;;15.14;66.56;100414.03;5055859;27;104331;-49
2021/11/02 19:33:50;;;;;;;11.82;9.15;;;;;;;15.14;66.58;100405.81;5048522;27;102140;-48
2021/11/02 19:36:17;;;;;;;9.88;8.68;;;;;;;15.13;66.61;100404.19;5044795;27;102792;-48
2021/11/02 19:38:44;;;;;;;12.88;9.82;;;;;;;15.14;66.73;100403.06;5045682;27;102539;-49
2021/11/02 19:41:11;;;;;;;10.45;9.05;;;;;;;15.14;67.13;100408.56;5051074;27;103912;-48
2021/11/02 19:43:40;;;;;;;15.20;9.43;;;;;;;15.14;67.04;100405.81;5047667;27;102084;-47
2021/11/02 19:46:08;;;;;;;9.95;8.93;;;;;;;15.14;67.04;100411.28;5056276;27;102266;-48
2021/11/02 19:48:37;;;;;;;12.23;8.63;;;;;;;15.16;66.72;100410.19;5059258;27;102739;-48
2021/11/02 19:51:04;;;;;;;12.60;9.30;;;;;;;15.16;67.06;100418.41;5050783;27;103860;-52
2021/11/02 19:53:31;;;;;;;12.60;8.80;;;;;;;15.16;67.03;100402.78;5055253;27;102115;-47
2021/11/02 19:55:58;;;;;;;12.00;9.02;;;;;;;15.14;67.12;100400.34;5059907;27;102150;-52
2021/11/02 19:58:25;;;;;;;10.85;8.93;;;;;;;15.16;67.27;100408.25;5055656;27;102340;-51
2021/11/02 20:00:52;;;;;;;11.25;9.05;;;;;;;15.17;67.34;100411.81;5055437;27;103821;-50
2021/11/02 20:03:19;;;;;;;10.18;8.40;;;;;;;15.16;67.22;100404.72;5058912;27;102221;-49
2021/11/02 20:05:49;;;;;;;10.73;8.65;;;;;;;15.17;67.02;100417.28;5057036;27;102125;-50
2021/11/02 20:08:19;;;;;;;12.70;8.88;;;;;;;15.16;67.14;100410.19;5058202;27;102199;-49
2021/11/02 20:10:47;;;;;;;10.43;8.30;;;;;;;15.17;67.09;100417.28;5049983;27;102736;-48
2021/11/02 20:13:17;;;;;;;9.25;8.18;;;;;;;15.17;67.11;100414.56;5066742;27;102345;-52
2021/11/02 20:15:45;;;;;;;10.05;8.70;;;;;;;15.16;67.21;100413.75;5058676;27;102042;-51
2021/11/02 20:18:14;;;;;;;10.93;8.85;;;;;;;15.16;67.22;100402.78;5054264;27;102474;-51
2021/11/02 20:20:42;;;;;;;;;;;;;;;15.18;67.34;100413.41;5048515;27;103881;-49